sensor_id;sensor_type;location;lat;lon;timestamp;temperature;humidity
56322;DHT22;42227;6.376;-10.782;2023-02-26T00:01:43;27.10;99.90
56322;DHT22;42227;6.376;-10.782;2023-02-26T00:04:12;27.20;99.90
56322;DHT22;42227;6.376;-10.782;2023-02-26T00:06:40;27.20;99.90
56322;DHT22;42227;6.376;-10.782;2023-02-26T00:09:09;27.30;99.90
56322;DHT22;42227;6.376;-10.782;2023-02-26T00:11:37;27.30;99.90
56322;DHT22;42227;6.376;-10.782;2023-02-26T00:14:10;27.30;99.90
56322;DHT22;42227;6.376;-10.782;2023-02-26T00:16:41;27.30;99.90
56322;DHT22;42227;6.376;-10.782;2023-02-26T00:19:11;27.30;99.90
56322;DHT22;42227;6.376;-10.782;2023-02-26T00:21:42;27.20;99.90
56322;DHT22;42227;6.376;-10.782;2023-02-26T00:24:11;27.20;99.90
56322;DHT22;42227;6.376;-10.782;2023-02-26T00:26:39;27.20;99.90
56322;DHT22;42227;6.376;-10.782;2023-02-26T00:29:08;27.20;99.90
56322;DHT22;42227;6.376;-10.782;2023-02-26T00:31:36;27.20;99.90
56322;DHT22;42227;6.376;-10.782;2023-02-26T00:34:05;27.20;99.90
56322;DHT22;42227;6.376;-10.782;2023-02-26T00:36:44;27.20;99.90
56322;DHT22;42227;6.376;-10.782;2023-02-26T00:39:45;27.20;99.90
56322;DHT22;42227;6.376;-10.782;2023-02-26T00:42:16;27.20;99.90
56322;DHT22;42227;6.376;-10.782;2023-02-26T00:44:45;27.20;99.90
56322;DHT22;42227;6.376;-10.782;2023-02-26T00:55:21;27.10;99.90
56322;DHT22;42227;6.376;-10.782;2023-02-26T00:57:49;27.10;99.90
56322;DHT22;42227;6.376;-10.782;2023-02-26T01:00:18;27.00;99.90
56322;DHT22;42227;6.376;-10.782;2023-02-26T01:02:47;27.00;99.90
56322;DHT22;42227;6.376;-10.782;2023-02-26T01:05:15;27.10;99.90
56322;DHT22;42227;6.376;-10.782;2023-02-26T01:08:08;27.00;99.90
56322;DHT22;42227;6.376;-10.782;2023-02-26T01:10:40;27.10;99.90
56322;DHT22;42227;6.376;-10.782;2023-02-26T01:13:09;27.00;99.90
56322;DHT22;42227;6.376;-10.782;2023-02-26T01:15:39;27.00;99.90
56322;DHT22;42227;6.376;-10.782;2023-02-26T01:18:15;27.00;99.90
56322;DHT22;42227;6.376;-10.782;2023-02-26T01:21:14;26.90;99.90
56322;DHT22;42227;6.376;-10.782;2023-02-26T01:23:48;26.90;99.90
56322;DHT22;42227;6.376;-10.782;2023-02-26T01:26:27;26.80;99.90
56322;DHT22;42227;6.376;-10.782;2023-02-26T01:28:56;26.70;99.90
56322;DHT22;42227;6.376;-10.782;2023-02-26T01:34:18;26.70;99.90
56322;DHT22;42227;6.376;-10.782;2023-02-26T01:37:01;26.80;99.90
56322;DHT22;42227;6.376;-10.782;2023-02-26T01:39:39;26.70;99.90
56322;DHT22;42227;6.376;-10.782;2023-02-26T01:42:26;26.70;99.90
56322;DHT22;42227;6.376;-10.782;2023-02-26T01:45:13;26.60;99.90
56322;DHT22;42227;6.376;-10.782;2023-02-26T01:47:57;26.60;99.90
56322;DHT22;42227;6.376;-10.782;2023-02-26T01:50:31;26.60;99.90
56322;DHT22;42227;6.376;-10.782;2023-02-26T01:53:20;26.60;99.90
56322;DHT22;42227;6.376;-10.782;2023-02-26T01:56:00;26.70;99.90
56322;DHT22;42227;6.376;-10.782;2023-02-26T01:58:32;26.60;99.90
56322;DHT22;42227;6.376;-10.782;2023-02-26T02:01:02;26.60;99.90
56322;DHT22;42227;6.376;-10.782;2023-02-26T02:03:33;26.60;99.90
56322;DHT22;42227;6.376;-10.782;2023-02-26T02:06:09;26.70;99.90
56322;DHT22;42227;6.376;-10.782;2023-02-26T02:08:38;26.70;99.90
56322;DHT22;42227;6.376;-10.782;2023-02-26T02:11:08;26.70;99.90
56322;DHT22;42227;6.376;-10.782;2023-02-26T02:27:39;26.70;99.90
56322;DHT22;42227;6.376;-10.782;2023-02-26T02:33:01;26.70;99.90
56322;DHT22;42227;6.376;-10.782;2023-02-26T02:35:49;26.60;99.90
56322;DHT22;42227;6.376;-10.782;2023-02-26T02:38:24;26.60;99.90
56322;DHT22;42227;6.376;-10.782;2023-02-26T02:41:05;26.50;99.90
56322;DHT22;42227;6.376;-10.782;2023-02-26T02:43:36;26.40;99.90
56322;DHT22;42227;6.376;-10.782;2023-02-26T02:46:22;26.50;99.90
56322;DHT22;42227;6.376;-10.782;2023-02-26T02:49:10;26.50;99.90
56322;DHT22;42227;6.376;-10.782;2023-02-26T02:51:51;26.40;99.90
56322;DHT22;42227;6.376;-10.782;2023-02-26T02:55:14;26.40;99.90
56322;DHT22;42227;6.376;-10.782;2023-02-26T03:00:27;26.40;99.90
56322;DHT22;42227;6.376;-10.782;2023-02-26T03:03:33;26.30;99.90
56322;DHT22;42227;6.376;-10.782;2023-02-26T03:06:02;26.30;99.90
56322;DHT22;42227;6.376;-10.782;2023-02-26T03:08:35;26.30;99.90
56322;DHT22;42227;6.376;-10.782;2023-02-26T03:11:04;26.30;99.90
56322;DHT22;42227;6.376;-10.782;2023-02-26T03:13:33;26.30;99.90
56322;DHT22;42227;6.376;-10.782;2023-02-26T03:22:15;26.30;99.90
56322;DHT22;42227;6.376;-10.782;2023-02-26T03:25:16;26.30;99.90
56322;DHT22;42227;6.376;-10.782;2023-02-26T03:27:54;26.30;99.90
56322;DHT22;42227;6.376;-10.782;2023-02-26T03:30:48;26.30;99.90
56322;DHT22;42227;6.376;-10.782;2023-02-26T03:38:58;26.30;99.90
56322;DHT22;42227;6.376;-10.782;2023-02-26T03:41:48;26.30;99.90
56322;DHT22;42227;6.376;-10.782;2023-02-26T03:44:43;26.20;99.90
56322;DHT22;42227;6.376;-10.782;2023-02-26T03:47:15;26.20;99.90
56322;DHT22;42227;6.376;-10.782;2023-02-26T03:50:36;26.20;99.90
56322;DHT22;42227;6.376;-10.782;2023-02-26T03:53:26;26.10;99.90
56322;DHT22;42227;6.376;-10.782;2023-02-26T03:56:14;26.10;99.90
56322;DHT22;42227;6.376;-10.782;2023-02-26T03:59:07;26.10;99.90
56322;DHT22;42227;6.376;-10.782;2023-02-26T04:02:01;26.10;99.90
56322;DHT22;42227;6.376;-10.782;2023-02-26T04:07:48;26.00;99.90
56322;DHT22;42227;6.376;-10.782;2023-02-26T04:10:26;26.10;99.90
56322;DHT22;42227;6.376;-10.782;2023-02-26T04:12:59;25.90;99.90
56322;DHT22;42227;6.376;-10.782;2023-02-26T04:15:27;25.90;99.90
56322;DHT22;42227;6.376;-10.782;2023-02-26T04:17:56;25.80;99.90
56322;DHT22;42227;6.376;-10.782;2023-02-26T04:20:24;25.80;99.90
56322;DHT22;42227;6.376;-10.782;2023-02-26T04:22:53;25.70;99.90
56322;DHT22;42227;6.376;-10.782;2023-02-26T04:25:22;25.60;99.90
56322;DHT22;42227;6.376;-10.782;2023-02-26T04:27:52;25.60;99.90
56322;DHT22;42227;6.376;-10.782;2023-02-26T04:30:20;25.60;99.90
56322;DHT22;42227;6.376;-10.782;2023-02-26T04:32:48;25.50;99.90
56322;DHT22;42227;6.376;-10.782;2023-02-26T04:35:17;25.50;99.90
56322;DHT22;42227;6.376;-10.782;2023-02-26T04:37:46;25.50;99.90
56322;DHT22;42227;6.376;-10.782;2023-02-26T04:40:14;25.50;99.90
56322;DHT22;42227;6.376;-10.782;2023-02-26T04:42:43;25.50;99.90
56322;DHT22;42227;6.376;-10.782;2023-02-26T04:45:19;25.50;99.90
56322;DHT22;42227;6.376;-10.782;2023-02-26T04:47:48;25.50;99.90
56322;DHT22;42227;6.376;-10.782;2023-02-26T04:50:17;25.50;99.90
56322;DHT22;42227;6.376;-10.782;2023-02-26T04:52:50;25.50;99.90
56322;DHT22;42227;6.376;-10.782;2023-02-26T04:55:18;25.50;99.90
56322;DHT22;42227;6.376;-10.782;2023-02-26T04:57:47;25.40;99.90
56322;DHT22;42227;6.376;-10.782;2023-02-26T05:00:15;25.20;99.90
56322;DHT22;42227;6.376;-10.782;2023-02-26T05:02:44;25.30;99.90
56322;DHT22;42227;6.376;-10.782;2023-02-26T05:05:12;25.40;99.90
56322;DHT22;42227;6.376;-10.782;2023-02-26T05:07:40;25.40;99.90
56322;DHT22;42227;6.376;-10.782;2023-02-26T05:10:10;25.50;99.90
56322;DHT22;42227;6.376;-10.782;2023-02-26T05:12:39;25.50;99.90
56322;DHT22;42227;6.376;-10.782;2023-02-26T05:15:08;25.40;99.90
56322;DHT22;42227;6.376;-10.782;2023-02-26T05:17:36;25.50;99.90
56322;DHT22;42227;6.376;-10.782;2023-02-26T05:20:05;25.50;99.90
56322;DHT22;42227;6.376;-10.782;2023-02-26T05:22:33;25.60;99.90
56322;DHT22;42227;6.376;-10.782;2023-02-26T05:25:01;25.60;99.90
56322;DHT22;42227;6.376;-10.782;2023-02-26T05:27:30;25.70;99.90
56322;DHT22;42227;6.376;-10.782;2023-02-26T05:29:58;25.80;99.90
56322;DHT22;42227;6.376;-10.782;2023-02-26T05:32:27;25.80;99.90
56322;DHT22;42227;6.376;-10.782;2023-02-26T05:34:56;25.80;99.90
56322;DHT22;42227;6.376;-10.782;2023-02-26T05:37:24;25.80;99.90
56322;DHT22;42227;6.376;-10.782;2023-02-26T05:39:52;25.80;99.90
56322;DHT22;42227;6.376;-10.782;2023-02-26T05:42:20;25.80;99.90
56322;DHT22;42227;6.376;-10.782;2023-02-26T05:44:48;25.80;99.90
56322;DHT22;42227;6.376;-10.782;2023-02-26T05:47:18;25.80;99.90
56322;DHT22;42227;6.376;-10.782;2023-02-26T05:49:46;25.80;99.90
56322;DHT22;42227;6.376;-10.782;2023-02-26T05:52:14;25.80;99.90
56322;DHT22;42227;6.376;-10.782;2023-02-26T05:54:43;25.80;99.90
56322;DHT22;42227;6.376;-10.782;2023-02-26T05:57:11;25.80;99.90
56322;DHT22;42227;6.376;-10.782;2023-02-26T05:59:39;25.80;99.90
56322;DHT22;42227;6.376;-10.782;2023-02-26T06:02:07;25.70;99.90
56322;DHT22;42227;6.376;-10.782;2023-02-26T06:04:36;25.70;99.90
56322;DHT22;42227;6.376;-10.782;2023-02-26T06:07:04;25.70;99.90
56322;DHT22;42227;6.376;-10.782;2023-02-26T06:09:32;25.70;99.90
56322;DHT22;42227;6.376;-10.782;2023-02-26T06:12:01;25.70;99.90
56322;DHT22;42227;6.376;-10.782;2023-02-26T06:14:29;25.70;99.90
56322;DHT22;42227;6.376;-10.782;2023-02-26T06:16:57;25.70;99.90
56322;DHT22;42227;6.376;-10.782;2023-02-26T06:19:26;25.70;99.90
56322;DHT22;42227;6.376;-10.782;2023-02-26T06:21:54;25.70;99.90
56322;DHT22;42227;6.376;-10.782;2023-02-26T06:24:22;25.70;99.90
56322;DHT22;42227;6.376;-10.782;2023-02-26T06:26:51;25.60;99.90
56322;DHT22;42227;6.376;-10.782;2023-02-26T06:29:19;25.70;99.90
56322;DHT22;42227;6.376;-10.782;2023-02-26T06:31:47;25.50;99.90
56322;DHT22;42227;6.376;-10.782;2023-02-26T06:34:16;25.50;99.90
56322;DHT22;42227;6.376;-10.782;2023-02-26T06:36:44;25.50;99.90
56322;DHT22;42227;6.376;-10.782;2023-02-26T06:39:13;25.50;99.90
56322;DHT22;42227;6.376;-10.782;2023-02-26T06:41:41;25.50;99.90
56322;DHT22;42227;6.376;-10.782;2023-02-26T06:44:10;25.60;99.90
56322;DHT22;42227;6.376;-10.782;2023-02-26T06:46:38;25.50;99.90
56322;DHT22;42227;6.376;-10.782;2023-02-26T06:49:07;25.50;99.90
56322;DHT22;42227;6.376;-10.782;2023-02-26T06:51:35;25.50;99.90
56322;DHT22;42227;6.376;-10.782;2023-02-26T06:54:03;25.50;99.90
56322;DHT22;42227;6.376;-10.782;2023-02-26T06:56:32;25.50;99.90
56322;DHT22;42227;6.376;-10.782;2023-02-26T06:59:00;25.50;99.90
56322;DHT22;42227;6.376;-10.782;2023-02-26T07:01:28;25.50;99.90
56322;DHT22;42227;6.376;-10.782;2023-02-26T07:03:57;25.50;99.90
56322;DHT22;42227;6.376;-10.782;2023-02-26T07:06:26;25.50;99.90
56322;DHT22;42227;6.376;-10.782;2023-02-26T07:08:54;25.50;99.90
56322;DHT22;42227;6.376;-10.782;2023-02-26T07:11:23;25.60;99.90
56322;DHT22;42227;6.376;-10.782;2023-02-26T07:13:52;25.60;99.90
56322;DHT22;42227;6.376;-10.782;2023-02-26T07:16:20;25.70;99.90
56322;DHT22;42227;6.376;-10.782;2023-02-26T07:18:48;25.70;99.90
56322;DHT22;42227;6.376;-10.782;2023-02-26T07:21:17;25.60;99.90
56322;DHT22;42227;6.376;-10.782;2023-02-26T07:23:45;25.60;99.90
56322;DHT22;42227;6.376;-10.782;2023-02-26T07:26:13;25.60;99.90
56322;DHT22;42227;6.376;-10.782;2023-02-26T07:28:41;25.60;99.90
56322;DHT22;42227;6.376;-10.782;2023-02-26T07:31:10;25.70;99.90
56322;DHT22;42227;6.376;-10.782;2023-02-26T07:33:38;25.90;99.90
56322;DHT22;42227;6.376;-10.782;2023-02-26T07:36:06;26.00;99.90
56322;DHT22;42227;6.376;-10.782;2023-02-26T07:38:35;26.00;99.90
56322;DHT22;42227;6.376;-10.782;2023-02-26T07:41:03;26.20;99.90
56322;DHT22;42227;6.376;-10.782;2023-02-26T07:43:31;26.40;99.90
56322;DHT22;42227;6.376;-10.782;2023-02-26T07:46:00;26.40;99.90
56322;DHT22;42227;6.376;-10.782;2023-02-26T07:48:28;26.50;99.90
56322;DHT22;42227;6.376;-10.782;2023-02-26T07:50:56;26.50;99.90
56322;DHT22;42227;6.376;-10.782;2023-02-26T07:53:24;26.50;99.90
56322;DHT22;42227;6.376;-10.782;2023-02-26T07:55:53;26.50;99.90
56322;DHT22;42227;6.376;-10.782;2023-02-26T07:58:21;26.70;99.90
56322;DHT22;42227;6.376;-10.782;2023-02-26T08:00:49;27.00;99.90
56322;DHT22;42227;6.376;-10.782;2023-02-26T08:03:18;27.10;99.90
56322;DHT22;42227;6.376;-10.782;2023-02-26T08:05:47;27.30;99.90
56322;DHT22;42227;6.376;-10.782;2023-02-26T08:08:15;27.00;99.90
56322;DHT22;42227;6.376;-10.782;2023-02-26T08:10:43;27.60;99.90
56322;DHT22;42227;6.376;-10.782;2023-02-26T08:13:11;28.20;99.90
56322;DHT22;42227;6.376;-10.782;2023-02-26T08:15:40;28.80;99.90
56322;DHT22;42227;6.376;-10.782;2023-02-26T08:18:08;29.30;99.90
56322;DHT22;42227;6.376;-10.782;2023-02-26T08:20:37;29.60;99.90
56322;DHT22;42227;6.376;-10.782;2023-02-26T08:23:05;29.70;99.90
56322;DHT22;42227;6.376;-10.782;2023-02-26T08:25:33;29.40;99.90
56322;DHT22;42227;6.376;-10.782;2023-02-26T08:28:01;30.20;99.90
56322;DHT22;42227;6.376;-10.782;2023-02-26T08:30:30;30.70;99.90
56322;DHT22;42227;6.376;-10.782;2023-02-26T08:32:58;31.10;99.90
56322;DHT22;42227;6.376;-10.782;2023-02-26T08:35:27;31.50;99.90
56322;DHT22;42227;6.376;-10.782;2023-02-26T08:37:55;31.70;99.90
56322;DHT22;42227;6.376;-10.782;2023-02-26T08:40:23;32.20;99.90
56322;DHT22;42227;6.376;-10.782;2023-02-26T08:42:52;31.80;99.90
56322;DHT22;42227;6.376;-10.782;2023-02-26T08:45:20;32.20;99.90
56322;DHT22;42227;6.376;-10.782;2023-02-26T08:47:48;32.80;99.90
56322;DHT22;42227;6.376;-10.782;2023-02-26T08:50:24;33.10;99.90
56322;DHT22;42227;6.376;-10.782;2023-02-26T08:52:53;33.50;99.90
56322;DHT22;42227;6.376;-10.782;2023-02-26T08:55:22;33.90;99.90
56322;DHT22;42227;6.376;-10.782;2023-02-26T08:57:50;34.20;99.90
56322;DHT22;42227;6.376;-10.782;2023-02-26T09:00:19;34.60;99.90
56322;DHT22;42227;6.376;-10.782;2023-02-26T09:02:48;34.90;99.90
56322;DHT22;42227;6.376;-10.782;2023-02-26T09:05:17;35.10;99.90
56322;DHT22;42227;6.376;-10.782;2023-02-26T09:07:45;34.90;99.90
56322;DHT22;42227;6.376;-10.782;2023-02-26T09:10:14;35.00;99.90
56322;DHT22;42227;6.376;-10.782;2023-02-26T09:12:43;34.20;99.90
56322;DHT22;42227;6.376;-10.782;2023-02-26T09:15:12;35.00;99.90
56322;DHT22;42227;6.376;-10.782;2023-02-26T09:17:41;35.60;99.40
56322;DHT22;42227;6.376;-10.782;2023-02-26T09:20:10;36.00;98.70
56322;DHT22;42227;6.376;-10.782;2023-02-26T09:22:39;35.90;98.90
56322;DHT22;42227;6.376;-10.782;2023-02-26T09:25:08;36.20;98.20
56322;DHT22;42227;6.376;-10.782;2023-02-26T09:27:37;36.20;97.90
56322;DHT22;42227;6.376;-10.782;2023-02-26T09:30:06;35.60;99.20
56322;DHT22;42227;6.376;-10.782;2023-02-26T09:32:34;35.90;99.20
56322;DHT22;42227;6.376;-10.782;2023-02-26T09:35:03;35.10;99.80
56322;DHT22;42227;6.376;-10.782;2023-02-26T09:37:32;34.30;99.90
56322;DHT22;42227;6.376;-10.782;2023-02-26T09:40:00;34.00;99.90
56322;DHT22;42227;6.376;-10.782;2023-02-26T09:45:28;33.30;99.90
56322;DHT22;42227;6.376;-10.782;2023-02-26T09:47:57;33.30;99.90
56322;DHT22;42227;6.376;-10.782;2023-02-26T09:50:49;33.20;99.90
56322;DHT22;42227;6.376;-10.782;2023-02-26T09:53:39;32.90;99.90
56322;DHT22;42227;6.376;-10.782;2023-02-26T09:56:22;32.60;99.90
56322;DHT22;42227;6.376;-10.782;2023-02-26T09:58:52;32.20;99.90
56322;DHT22;42227;6.376;-10.782;2023-02-26T10:12:36;33.10;99.90
56322;DHT22;42227;6.376;-10.782;2023-02-26T10:18:14;33.20;99.90
56322;DHT22;42227;6.376;-10.782;2023-02-26T10:26:47;32.70;99.90
56322;DHT22;42227;6.376;-10.782;2023-02-26T10:29:27;33.10;99.90
56322;DHT22;42227;6.376;-10.782;2023-02-26T10:34:59;32.90;99.90
56322;DHT22;42227;6.376;-10.782;2023-02-26T10:37:50;32.90;99.90
56322;DHT22;42227;6.376;-10.782;2023-02-26T10:40:49;33.00;99.90
56322;DHT22;42227;6.376;-10.782;2023-02-26T10:43:22;33.00;99.90
56322;DHT22;42227;6.376;-10.782;2023-02-26T10:52:00;33.10;99.90
56322;DHT22;42227;6.376;-10.782;2023-02-26T10:54:38;33.20;99.90
56322;DHT22;42227;6.376;-10.782;2023-02-26T10:57:24;33.20;99.90
56322;DHT22;42227;6.376;-10.782;2023-02-26T10:59:56;33.20;99.90
56322;DHT22;42227;6.376;-10.782;2023-02-26T11:02:41;33.10;99.90
56322;DHT22;42227;6.376;-10.782;2023-02-26T11:05:23;33.00;99.90
56322;DHT22;42227;6.376;-10.782;2023-02-26T11:07:56;32.70;99.90
56322;DHT22;42227;6.376;-10.782;2023-02-26T11:10:28;32.70;99.90
56322;DHT22;42227;6.376;-10.782;2023-02-26T11:12:58;32.20;99.90
56322;DHT22;42227;6.376;-10.782;2023-02-26T11:15:26;32.30;99.90
56322;DHT22;42227;6.376;-10.782;2023-02-26T11:33:21;33.20;99.90
56322;DHT22;42227;6.376;-10.782;2023-02-26T11:35:50;32.80;99.90
56322;DHT22;42227;6.376;-10.782;2023-02-26T11:38:22;32.50;99.90
56322;DHT22;42227;6.376;-10.782;2023-02-26T11:40:55;32.30;99.90
56322;DHT22;42227;6.376;-10.782;2023-02-26T11:43:24;32.10;99.90
56322;DHT22;42227;6.376;-10.782;2023-02-26T11:45:59;32.40;99.90
56322;DHT22;42227;6.376;-10.782;2023-02-26T11:48:46;32.70;99.90
56322;DHT22;42227;6.376;-10.782;2023-02-26T11:51:19;32.80;99.90
56322;DHT22;42227;6.376;-10.782;2023-02-26T11:53:54;32.80;99.90
56322;DHT22;42227;6.376;-10.782;2023-02-26T11:56:42;32.90;99.90
56322;DHT22;42227;6.376;-10.782;2023-02-26T11:59:19;32.30;99.90
56322;DHT22;42227;6.376;-10.782;2023-02-26T12:01:49;32.50;99.90
56322;DHT22;42227;6.376;-10.782;2023-02-26T12:04:23;32.30;99.90
56322;DHT22;42227;6.376;-10.782;2023-02-26T12:06:55;32.30;99.90
56322;DHT22;42227;6.376;-10.782;2023-02-26T12:09:24;32.30;99.90
56322;DHT22;42227;6.376;-10.782;2023-02-26T12:15:09;32.30;99.90
56322;DHT22;42227;6.376;-10.782;2023-02-26T12:26:25;31.60;99.90
56322;DHT22;42227;6.376;-10.782;2023-02-26T12:38:18;32.20;99.90
56322;DHT22;42227;6.376;-10.782;2023-02-26T12:41:04;32.40;99.90
56322;DHT22;42227;6.376;-10.782;2023-02-26T12:43:51;32.70;99.90
56322;DHT22;42227;6.376;-10.782;2023-02-26T12:46:42;32.20;99.90
56322;DHT22;42227;6.376;-10.782;2023-02-26T13:12:29;32.10;99.90
56322;DHT22;42227;6.376;-10.782;2023-02-26T13:15:23;32.20;99.90
56322;DHT22;42227;6.376;-10.782;2023-02-26T13:21:29;31.70;99.90
56322;DHT22;42227;6.376;-10.782;2023-02-26T13:26:39;32.10;99.90
56322;DHT22;42227;6.376;-10.782;2023-02-26T13:31:52;31.90;99.90
56322;DHT22;42227;6.376;-10.782;2023-02-26T13:37:30;31.80;99.90
56322;DHT22;42227;6.376;-10.782;2023-02-26T13:51:46;32.40;99.90
56322;DHT22;42227;6.376;-10.782;2023-02-26T13:57:04;31.70;99.90
56322;DHT22;42227;6.376;-10.782;2023-02-26T14:02:49;32.30;99.90
56322;DHT22;42227;6.376;-10.782;2023-02-26T14:11:05;31.80;99.90
56322;DHT22;42227;6.376;-10.782;2023-02-26T14:14:10;31.50;99.90
56322;DHT22;42227;6.376;-10.782;2023-02-26T14:16:41;31.90;99.90
56322;DHT22;42227;6.376;-10.782;2023-02-26T14:21:51;31.50;99.90
56322;DHT22;42227;6.376;-10.782;2023-02-26T18:48:18;28.00;99.90
56322;DHT22;42227;6.376;-10.782;2023-02-26T18:50:47;28.00;99.90
56322;DHT22;42227;6.376;-10.782;2023-02-26T18:53:15;28.00;99.90
56322;DHT22;42227;6.376;-10.782;2023-02-26T18:55:44;28.10;99.90
56322;DHT22;42227;6.376;-10.782;2023-02-26T18:58:13;28.10;99.90
56322;DHT22;42227;6.376;-10.782;2023-02-26T19:00:41;28.00;99.90
56322;DHT22;42227;6.376;-10.782;2023-02-26T19:03:09;28.10;99.90
56322;DHT22;42227;6.376;-10.782;2023-02-26T19:05:38;28.00;99.90
56322;DHT22;42227;6.376;-10.782;2023-02-26T19:08:06;28.00;99.90
56322;DHT22;42227;6.376;-10.782;2023-02-26T19:10:35;28.10;99.90
56322;DHT22;42227;6.376;-10.782;2023-02-26T19:13:04;28.10;99.90
56322;DHT22;42227;6.376;-10.782;2023-02-26T19:15:32;28.10;99.90
56322;DHT22;42227;6.376;-10.782;2023-02-26T19:18:01;28.10;99.90
56322;DHT22;42227;6.376;-10.782;2023-02-26T19:20:29;28.00;99.90
56322;DHT22;42227;6.376;-10.782;2023-02-26T19:22:58;27.80;99.90
56322;DHT22;42227;6.376;-10.782;2023-02-26T19:25:27;27.80;99.90
56322;DHT22;42227;6.376;-10.782;2023-02-26T19:27:55;27.80;99.90
56322;DHT22;42227;6.376;-10.782;2023-02-26T19:30:24;27.80;99.90
56322;DHT22;42227;6.376;-10.782;2023-02-26T19:32:53;27.90;99.90
56322;DHT22;42227;6.376;-10.782;2023-02-26T19:35:21;27.80;99.90
56322;DHT22;42227;6.376;-10.782;2023-02-26T19:37:50;27.90;99.90
56322;DHT22;42227;6.376;-10.782;2023-02-26T19:40:19;28.00;99.90
56322;DHT22;42227;6.376;-10.782;2023-02-26T19:42:47;28.00;99.90
56322;DHT22;42227;6.376;-10.782;2023-02-26T19:45:16;27.90;99.90
56322;DHT22;42227;6.376;-10.782;2023-02-26T19:47:44;27.90;99.90
56322;DHT22;42227;6.376;-10.782;2023-02-26T19:50:13;27.80;99.90
56322;DHT22;42227;6.376;-10.782;2023-02-26T19:52:42;27.80;99.90
56322;DHT22;42227;6.376;-10.782;2023-02-26T19:55:10;27.70;99.90
56322;DHT22;42227;6.376;-10.782;2023-02-26T19:57:38;27.60;99.90
56322;DHT22;42227;6.376;-10.782;2023-02-26T20:01:32;27.80;99.90
56322;DHT22;42227;6.376;-10.782;2023-02-26T20:04:02;27.60;99.90
56322;DHT22;42227;6.376;-10.782;2023-02-26T20:06:30;27.50;99.90
56322;DHT22;42227;6.376;-10.782;2023-02-26T20:08:59;27.70;99.90
56322;DHT22;42227;6.376;-10.782;2023-02-26T20:11:27;27.80;99.90
56322;DHT22;42227;6.376;-10.782;2023-02-26T20:13:56;27.70;99.90
56322;DHT22;42227;6.376;-10.782;2023-02-26T20:16:24;27.80;99.90
56322;DHT22;42227;6.376;-10.782;2023-02-26T20:18:52;27.70;99.90
56322;DHT22;42227;6.376;-10.782;2023-02-26T20:21:21;27.60;99.90
56322;DHT22;42227;6.376;-10.782;2023-02-26T20:23:49;27.50;99.90
56322;DHT22;42227;6.376;-10.782;2023-02-26T20:26:18;27.60;99.90
56322;DHT22;42227;6.376;-10.782;2023-02-26T20:28:46;27.70;99.90
56322;DHT22;42227;6.376;-10.782;2023-02-26T20:31:15;27.70;99.90
56322;DHT22;42227;6.376;-10.782;2023-02-26T20:33:43;27.80;99.90
56322;DHT22;42227;6.376;-10.782;2023-02-26T20:36:12;27.70;99.90
56322;DHT22;42227;6.376;-10.782;2023-02-26T20:38:40;27.50;99.90
56322;DHT22;42227;6.376;-10.782;2023-02-26T20:41:09;27.60;99.90
56322;DHT22;42227;6.376;-10.782;2023-02-26T20:43:37;27.70;99.90
56322;DHT22;42227;6.376;-10.782;2023-02-26T20:46:05;27.80;99.90
56322;DHT22;42227;6.376;-10.782;2023-02-26T20:48:34;27.70;99.90
56322;DHT22;42227;6.376;-10.782;2023-02-26T20:51:02;27.70;99.90
56322;DHT22;42227;6.376;-10.782;2023-02-26T20:53:31;27.50;99.90
56322;DHT22;42227;6.376;-10.782;2023-02-26T20:56:00;27.50;99.90
56322;DHT22;42227;6.376;-10.782;2023-02-26T20:58:28;27.50;99.90
56322;DHT22;42227;6.376;-10.782;2023-02-26T21:00:57;27.50;99.90
56322;DHT22;42227;6.376;-10.782;2023-02-26T21:03:26;27.50;99.90
56322;DHT22;42227;6.376;-10.782;2023-02-26T21:05:55;27.60;99.90
56322;DHT22;42227;6.376;-10.782;2023-02-26T21:08:23;27.60;99.90
56322;DHT22;42227;6.376;-10.782;2023-02-26T21:10:52;27.50;99.90
56322;DHT22;42227;6.376;-10.782;2023-02-26T21:13:20;27.50;99.90
56322;DHT22;42227;6.376;-10.782;2023-02-26T21:15:49;27.50;99.90
56322;DHT22;42227;6.376;-10.782;2023-02-26T21:18:18;27.50;99.90
56322;DHT22;42227;6.376;-10.782;2023-02-26T21:20:48;27.50;99.90
56322;DHT22;42227;6.376;-10.782;2023-02-26T21:23:16;27.50;99.90
56322;DHT22;42227;6.376;-10.782;2023-02-26T21:25:45;27.50;99.90
56322;DHT22;42227;6.376;-10.782;2023-02-26T21:28:13;27.30;99.90
56322;DHT22;42227;6.376;-10.782;2023-02-26T21:30:41;27.30;99.90
56322;DHT22;42227;6.376;-10.782;2023-02-26T21:33:10;27.50;99.90
56322;DHT22;42227;6.376;-10.782;2023-02-26T21:35:38;27.50;99.90
56322;DHT22;42227;6.376;-10.782;2023-02-26T21:38:07;27.50;99.90
56322;DHT22;42227;6.376;-10.782;2023-02-26T21:40:35;27.70;99.90
56322;DHT22;42227;6.376;-10.782;2023-02-26T21:43:03;27.50;99.90
56322;DHT22;42227;6.376;-10.782;2023-02-26T21:45:32;27.40;99.90
56322;DHT22;42227;6.376;-10.782;2023-02-26T21:48:00;27.40;99.90
56322;DHT22;42227;6.376;-10.782;2023-02-26T21:50:29;27.50;99.90
56322;DHT22;42227;6.376;-10.782;2023-02-26T21:52:58;27.60;99.90
56322;DHT22;42227;6.376;-10.782;2023-02-26T21:55:26;27.50;99.90
56322;DHT22;42227;6.376;-10.782;2023-02-26T21:57:55;27.50;99.90
56322;DHT22;42227;6.376;-10.782;2023-02-26T22:00:23;27.40;99.90
56322;DHT22;42227;6.376;-10.782;2023-02-26T22:02:52;27.30;99.90
56322;DHT22;42227;6.376;-10.782;2023-02-26T22:05:20;27.40;99.90
56322;DHT22;42227;6.376;-10.782;2023-02-26T22:07:48;27.40;99.90
56322;DHT22;42227;6.376;-10.782;2023-02-26T22:10:17;27.40;99.90
56322;DHT22;42227;6.376;-10.782;2023-02-26T22:12:45;27.50;99.90
56322;DHT22;42227;6.376;-10.782;2023-02-26T22:15:14;27.50;99.90
56322;DHT22;42227;6.376;-10.782;2023-02-26T22:17:42;27.40;99.90
56322;DHT22;42227;6.376;-10.782;2023-02-26T22:20:10;27.20;99.90
56322;DHT22;42227;6.376;-10.782;2023-02-26T22:22:39;27.30;99.90
56322;DHT22;42227;6.376;-10.782;2023-02-26T22:25:09;27.40;99.90
56322;DHT22;42227;6.376;-10.782;2023-02-26T22:27:38;27.50;99.90
56322;DHT22;42227;6.376;-10.782;2023-02-26T22:30:07;27.50;99.90
56322;DHT22;42227;6.376;-10.782;2023-02-26T22:32:36;27.40;99.90
56322;DHT22;42227;6.376;-10.782;2023-02-26T22:35:05;27.40;99.90
56322;DHT22;42227;6.376;-10.782;2023-02-26T22:37:34;27.40;99.90
56322;DHT22;42227;6.376;-10.782;2023-02-26T22:40:02;27.50;99.90
56322;DHT22;42227;6.376;-10.782;2023-02-26T22:42:31;27.60;99.90
56322;DHT22;42227;6.376;-10.782;2023-02-26T22:44:59;27.60;99.90
56322;DHT22;42227;6.376;-10.782;2023-02-26T22:47:27;27.60;99.90
56322;DHT22;42227;6.376;-10.782;2023-02-26T22:49:56;27.50;99.90
56322;DHT22;42227;6.376;-10.782;2023-02-26T22:52:24;27.40;99.90
56322;DHT22;42227;6.376;-10.782;2023-02-26T22:54:53;27.50;99.90
56322;DHT22;42227;6.376;-10.782;2023-02-26T22:57:21;27.50;99.90
56322;DHT22;42227;6.376;-10.782;2023-02-26T22:59:49;27.50;99.90
56322;DHT22;42227;6.376;-10.782;2023-02-26T23:02:18;27.50;99.90
56322;DHT22;42227;6.376;-10.782;2023-02-26T23:04:46;27.40;99.90